createdAt,value
2017-09-06T00:00:27.098Z,18.48
2017-09-06T00:01:35.947Z,18.51
2017-09-06T00:02:44.796Z,18.41
2017-09-06T00:03:53.643Z,18.37
2017-09-06T00:05:02.641Z,18.42
2017-09-06T00:06:11.823Z,18.39
2017-09-06T00:07:20.679Z,18.41
2017-09-06T00:08:29.520Z,18.45
2017-09-06T00:09:38.369Z,18.41
2017-09-06T00:10:47.368Z,18.39
2017-09-06T00:11:56.214Z,18.51
2017-09-06T00:13:05.059Z,18.48
2017-09-06T00:14:13.910Z,18.5
2017-09-06T00:15:22.758Z,18.51
2017-09-06T00:16:31.756Z,18.47
2017-09-06T00:17:40.606Z,18.54
2017-09-06T00:18:49.453Z,18.37
2017-09-06T00:19:58.301Z,18.37
2017-09-06T00:21:07.149Z,18.41
2017-09-06T00:22:16.479Z,18.45
2017-09-06T00:23:25.328Z,18.42
2017-09-06T00:24:34.175Z,18.37
2017-09-06T00:25:43.023Z,18.39
2017-09-06T00:26:51.871Z,18.42
2017-09-06T00:28:00.921Z,18.45
2017-09-06T00:29:09.769Z,18.36
2017-09-06T00:30:18.617Z,18.41
2017-09-06T00:31:27.466Z,18.48
2017-09-06T00:32:36.316Z,18.45
2017-09-06T00:33:45.313Z,18.45
2017-09-06T00:34:54.161Z,18.39
2017-09-06T00:36:03.010Z,18.48
2017-09-06T00:37:11.857Z,18.42
2017-09-06T00:38:20.705Z,18.37
2017-09-06T00:39:30.085Z,18.37
2017-09-06T00:40:38.934Z,18.32
2017-09-06T00:41:48.114Z,18.33
2017-09-06T00:42:56.962Z,18.32
2017-09-06T00:44:05.813Z,18.3
2017-09-06T00:45:14.861Z,18.29
2017-09-06T00:46:23.708Z,18.3
2017-09-06T00:47:32.557Z,18.36
2017-09-06T00:48:41.408Z,18.35
2017-09-06T00:49:50.257Z,18.29
2017-09-06T00:50:59.536Z,18.3
2017-09-06T00:52:08.384Z,18.3
2017-09-06T00:53:17.234Z,18.35
2017-09-06T00:54:26.086Z,18.29
2017-09-06T00:55:34.935Z,18.35
2017-09-06T00:56:43.782Z,18.29
2017-09-06T00:57:52.630Z,18.32
2017-09-06T00:59:01.474Z,18.33
2017-09-06T01:00:10.323Z,18.29
2017-09-06T01:01:19.170Z,18.33
2017-09-06T01:02:28.067Z,18.3
2017-09-06T01:03:36.916Z,18.27
2017-09-06T01:04:45.761Z,18.29
2017-09-06T01:05:54.608Z,18.36
2017-09-06T01:07:03.454Z,18.26
2017-09-06T01:08:12.549Z,18.27
2017-09-06T01:09:21.394Z,18.26
2017-09-06T01:10:30.241Z,18.32
2017-09-06T01:11:39.087Z,18.27
2017-09-06T01:12:47.938Z,18.3
2017-09-06T01:13:56.931Z,18.32
2017-09-06T01:15:05.778Z,18.25
2017-09-06T01:16:14.956Z,18.3
2017-09-06T01:17:23.802Z,18.35
2017-09-06T01:18:32.651Z,18.29
2017-09-06T01:19:41.597Z,18.35
2017-09-06T01:20:50.444Z,18.33
2017-09-06T01:21:59.295Z,18.27
2017-09-06T01:23:08.143Z,18.3
2017-09-06T01:24:16.987Z,18.29
2017-09-06T01:25:26.033Z,18.29
2017-09-06T01:26:34.881Z,18.27
2017-09-06T01:27:43.730Z,18.18
2017-09-06T01:28:52.578Z,18.23
2017-09-06T01:30:01.425Z,18.2
2017-09-06T01:31:10.423Z,18.3
2017-09-06T01:32:19.269Z,18.17
2017-09-06T01:33:28.115Z,18.27
2017-09-06T01:34:36.961Z,18.14
2017-09-06T01:35:45.806Z,18.14
2017-09-06T01:36:54.800Z,18.17
2017-09-06T01:38:03.647Z,18.25
2017-09-06T01:39:12.495Z,18.11
2017-09-06T01:40:21.342Z,18.2
2017-09-06T01:41:30.269Z,18.18
2017-09-06T01:42:39.234Z,18.2
2017-09-06T01:43:48.080Z,18.2
2017-09-06T01:44:56.925Z,18.14
2017-09-06T01:46:05.769Z,18.1
2017-09-06T01:47:14.944Z,18.1
2017-09-06T01:48:23.840Z,18.07
2017-09-06T01:49:32.687Z,18.11
2017-09-06T01:50:41.534Z,18.08
2017-09-06T01:51:50.378Z,18.08
2017-09-06T01:52:59.225Z,18.15
2017-09-06T01:54:08.119Z,18.07
2017-09-06T01:55:16.963Z,18.11
2017-09-06T01:56:25.808Z,18.05
2017-09-06T01:57:34.656Z,17.97
2017-09-06T01:58:43.503Z,18.08
2017-09-06T01:59:52.422Z,18.03
2017-09-06T02:01:01.256Z,18.02
2017-09-06T02:02:10.100Z,18
2017-09-06T02:03:18.950Z,17.95
2017-09-06T02:04:27.794Z,17.97
2017-09-06T02:05:36.889Z,18.02
2017-09-06T02:06:45.737Z,18
2017-09-06T02:07:54.586Z,18.03
2017-09-06T02:09:03.433Z,17.99
2017-09-06T02:10:12.279Z,17.96
2017-09-06T02:11:21.274Z,18.02
2017-09-06T02:12:30.120Z,17.99
2017-09-06T02:13:38.965Z,17.9
2017-09-06T02:14:47.811Z,17.92
2017-09-06T02:15:56.659Z,17.92
2017-09-06T02:17:05.553Z,17.95
2017-09-06T02:18:14.397Z,18.02
2017-09-06T02:19:23.244Z,17.97
2017-09-06T02:20:32.092Z,17.93
2017-09-06T02:21:41.270Z,17.97
2017-09-06T02:22:50.120Z,17.92
2017-09-06T02:23:58.958Z,17.89
2017-09-06T02:25:07.804Z,17.92
2017-09-06T02:26:16.651Z,17.84
2017-09-06T02:27:25.494Z,17.89
2017-09-06T02:28:34.489Z,17.9
2017-09-06T02:29:43.336Z,17.79
2017-09-06T02:30:52.209Z,17.75
2017-09-06T02:32:01.026Z,17.77
2017-09-06T02:33:09.873Z,17.75
2017-09-06T02:34:18.882Z,17.74
2017-09-06T02:35:27.712Z,17.79
2017-09-06T02:36:36.558Z,17.66
2017-09-06T02:37:45.402Z,17.7
2017-09-06T02:38:54.581Z,17.66
2017-09-06T02:40:03.807Z,17.68
2017-09-06T02:41:12.652Z,17.74
2017-09-06T02:42:21.495Z,17.63
2017-09-06T02:43:30.728Z,17.56
2017-09-06T02:44:39.572Z,17.56
2017-09-06T02:45:48.568Z,17.52
2017-09-06T02:46:57.415Z,17.58
2017-09-06T02:48:06.259Z,17.54
2017-09-06T02:49:15.104Z,17.55
2017-09-06T02:50:23.949Z,17.55
2017-09-06T02:51:32.843Z,17.51
2017-09-06T02:52:41.692Z,17.55
2017-09-06T02:53:50.538Z,17.49
2017-09-06T02:54:59.386Z,17.52
2017-09-06T02:56:08.232Z,17.48
2017-09-06T02:57:17.180Z,17.55
2017-09-06T02:58:26.030Z,17.48
2017-09-06T02:59:35.204Z,17.52
2017-09-06T03:00:44.048Z,17.54
2017-09-06T03:01:52.892Z,17.51
2017-09-06T03:03:01.941Z,17.54
2017-09-06T03:04:10.788Z,17.55
2017-09-06T03:05:19.632Z,17.52
2017-09-06T03:06:28.478Z,17.56
2017-09-06T03:07:37.326Z,17.59
2017-09-06T03:08:46.324Z,17.55
2017-09-06T03:09:55.170Z,17.55
2017-09-06T03:11:04.015Z,17.55
2017-09-06T03:12:12.862Z,17.59
2017-09-06T03:13:21.711Z,17.58
2017-09-06T03:14:30.613Z,17.52
2017-09-06T03:15:39.460Z,17.49
2017-09-06T03:16:48.306Z,17.55
2017-09-06T03:17:57.180Z,17.54
2017-09-06T03:19:06.001Z,17.58
2017-09-06T03:20:15.100Z,17.55
2017-09-06T03:21:23.947Z,17.63
2017-09-06T03:22:32.794Z,17.58
2017-09-06T03:23:42.009Z,17.55
2017-09-06T03:24:50.853Z,17.58
2017-09-06T03:25:59.748Z,17.56
2017-09-06T03:27:08.592Z,17.52
2017-09-06T03:28:17.441Z,17.52
2017-09-06T03:29:26.285Z,17.48
2017-09-06T03:30:35.137Z,17.46
2017-09-06T03:31:44.031Z,17.43
2017-09-06T03:32:52.880Z,17.44
2017-09-06T03:34:01.728Z,17.48
2017-09-06T03:35:10.576Z,17.48
2017-09-06T03:36:19.423Z,17.44
2017-09-06T03:37:28.427Z,17.44
2017-09-06T03:38:37.603Z,17.41
2017-09-06T03:39:46.448Z,17.46
2017-09-06T03:40:55.296Z,17.44
2017-09-06T03:42:04.152Z,17.46
2017-09-06T03:43:13.050Z,17.44
2017-09-06T03:44:21.898Z,17.41
2017-09-06T03:45:30.747Z,17.44
2017-09-06T03:46:39.594Z,17.38
2017-09-06T03:47:48.442Z,17.37
2017-09-06T03:48:57.289Z,17.38
2017-09-06T03:50:06.473Z,17.38
2017-09-06T03:51:15.318Z,17.4
2017-09-06T03:52:24.170Z,17.37
2017-09-06T03:53:33.010Z,17.41
2017-09-06T03:54:41.958Z,17.37
2017-09-06T03:55:50.806Z,17.33
2017-09-06T03:56:59.655Z,17.38
2017-09-06T03:58:08.500Z,17.33
2017-09-06T03:59:17.350Z,17.26
2017-09-06T04:00:26.257Z,17.26
2017-09-06T04:01:35.096Z,17.33
2017-09-06T04:02:43.945Z,17.31
2017-09-06T04:03:52.793Z,17.33
2017-09-06T04:05:01.639Z,17.3
2017-09-06T04:06:10.687Z,17.25
2017-09-06T04:07:19.536Z,17.28
2017-09-06T04:08:28.384Z,17.28
2017-09-06T04:09:37.232Z,17.25
2017-09-06T04:10:46.076Z,17.26
2017-09-06T04:11:54.921Z,17.3
2017-09-06T04:13:03.769Z,17.25
2017-09-06T04:14:12.648Z,17.23
2017-09-06T04:15:22.136Z,17.23
2017-09-06T04:16:30.984Z,17.18
2017-09-06T04:17:39.981Z,17.21
2017-09-06T04:18:48.828Z,17.16
2017-09-06T04:19:57.676Z,17.16
2017-09-06T04:21:06.525Z,17.15
2017-09-06T04:22:15.368Z,17.18
2017-09-06T04:23:24.267Z,17.16
2017-09-06T04:24:33.113Z,17.26
2017-09-06T04:25:41.964Z,17.16
2017-09-06T04:26:50.812Z,17.23
2017-09-06T04:27:59.659Z,17.18
2017-09-06T04:29:08.660Z,17.19
2017-09-06T04:30:17.505Z,17.18
2017-09-06T04:31:26.353Z,17.21
2017-09-06T04:32:35.200Z,17.16
2017-09-06T04:33:44.050Z,17.25
2017-09-06T04:34:52.900Z,17.18
2017-09-06T04:36:01.750Z,17.21
2017-09-06T04:37:10.598Z,17.19
2017-09-06T04:38:19.446Z,17.22
2017-09-06T04:39:28.292Z,17.15
2017-09-06T04:40:37.140Z,17.18
2017-09-06T04:41:45.985Z,17.19
2017-09-06T04:42:54.832Z,17.18
2017-09-06T04:44:03.681Z,17.21
2017-09-06T04:45:12.531Z,17.18
2017-09-06T04:46:21.377Z,17.22
2017-09-06T04:47:30.224Z,17.14
2017-09-06T04:48:39.071Z,17.18
2017-09-06T04:49:47.918Z,17.15
2017-09-06T04:50:56.767Z,17.11
2017-09-06T04:52:05.615Z,17.15
2017-09-06T04:53:14.463Z,17.12
2017-09-06T04:54:23.311Z,17.15
2017-09-06T04:55:32.157Z,17.07
2017-09-06T04:56:41.011Z,17.15
2017-09-06T04:57:49.856Z,17.11
2017-09-06T04:58:58.703Z,17.15
2017-09-06T05:00:07.654Z,17.08
2017-09-06T05:01:16.526Z,17.15
2017-09-06T05:02:25.382Z,17.16
2017-09-06T05:03:34.231Z,17.06
2017-09-06T05:04:43.080Z,17.06
2017-09-06T05:05:52.077Z,17.06
2017-09-06T05:07:00.925Z,17.14
2017-09-06T05:08:09.774Z,17.19
2017-09-06T05:09:18.623Z,17.11
2017-09-06T05:10:27.472Z,17.18
2017-09-06T05:11:36.421Z,17.08
2017-09-06T05:12:45.270Z,17.21
2017-09-06T05:13:54.119Z,17.19
2017-09-06T05:15:02.967Z,17.19
2017-09-06T05:16:11.819Z,17.21
2017-09-06T05:17:21.148Z,17.21
2017-09-06T05:18:29.998Z,17.19
2017-09-06T05:19:38.850Z,17.16
2017-09-06T05:20:47.700Z,17.18
2017-09-06T05:21:56.548Z,17.12
2017-09-06T05:23:05.548Z,17.08
2017-09-06T05:24:14.397Z,17.15
2017-09-06T05:25:23.245Z,17.08
2017-09-06T05:26:32.091Z,17.04
2017-09-06T05:27:40.947Z,17.08
2017-09-06T05:28:50.283Z,17.16
2017-09-06T05:29:59.132Z,17.16
2017-09-06T05:31:07.981Z,17.08
2017-09-06T05:32:16.831Z,17.07
2017-09-06T05:33:25.681Z,17.16
2017-09-06T05:34:34.631Z,17.11
2017-09-06T05:35:43.482Z,17.15
2017-09-06T05:36:52.330Z,17.15
2017-09-06T05:38:01.178Z,17.19
2017-09-06T05:39:10.025Z,17.15
2017-09-06T05:40:19.024Z,17.19
2017-09-06T05:41:27.872Z,17.14
2017-09-06T05:42:36.722Z,17.16
2017-09-06T05:43:45.898Z,17.14
2017-09-06T05:44:54.749Z,17.19
2017-09-06T05:46:03.748Z,17.15
2017-09-06T05:47:12.599Z,17.15
2017-09-06T05:48:21.448Z,17.16
2017-09-06T05:49:30.311Z,17.15
2017-09-06T05:50:39.166Z,17.23
2017-09-06T05:51:48.144Z,17.26
2017-09-06T05:52:57.185Z,17.25
2017-09-06T05:54:06.561Z,17.3
2017-09-06T05:55:15.454Z,17.26
2017-09-06T05:56:24.582Z,17.31
2017-09-06T05:57:33.540Z,17.33
2017-09-06T05:58:42.388Z,17.3
2017-09-06T05:59:51.233Z,17.3
2017-09-06T06:01:00.083Z,17.33
2017-09-06T06:02:08.931Z,17.3
2017-09-06T06:03:17.829Z,17.37
2017-09-06T06:04:26.681Z,17.41
2017-09-06T06:05:35.545Z,17.37
2017-09-06T06:06:44.391Z,17.43
2017-09-06T06:07:53.240Z,17.4
2017-09-06T06:09:02.188Z,17.38
2017-09-06T06:10:11.038Z,17.36
2017-09-06T06:11:19.887Z,17.43
2017-09-06T06:12:28.738Z,17.43
2017-09-06T06:13:37.588Z,17.37
2017-09-06T06:14:46.639Z,17.43
2017-09-06T06:15:55.490Z,17.44
2017-09-06T06:17:04.337Z,17.44
2017-09-06T06:18:13.852Z,17.44
2017-09-06T06:19:22.699Z,17.43
2017-09-06T06:20:31.594Z,17.48
2017-09-06T06:21:40.441Z,17.46
2017-09-06T06:22:49.289Z,17.44
2017-09-06T06:23:58.134Z,17.49
2017-09-06T06:25:06.979Z,17.52
2017-09-06T06:26:15.976Z,17.52
2017-09-06T06:27:24.823Z,17.51
2017-09-06T06:28:33.999Z,17.54
2017-09-06T06:29:42.845Z,17.56
2017-09-06T06:30:51.691Z,17.54
2017-09-06T06:32:00.587Z,17.63
2017-09-06T06:33:09.436Z,17.56
2017-09-06T06:34:18.613Z,17.54
2017-09-06T06:35:27.459Z,17.56
2017-09-06T06:36:36.304Z,17.46
2017-09-06T06:37:45.300Z,17.59
2017-09-06T06:38:54.147Z,17.58
2017-09-06T06:40:02.995Z,17.58
2017-09-06T06:41:11.842Z,17.63
2017-09-06T06:42:21.025Z,17.59
2017-09-06T06:43:29.973Z,17.63
2017-09-06T06:44:38.818Z,17.68
2017-09-06T06:45:47.663Z,17.64
2017-09-06T06:46:56.511Z,17.72
2017-09-06T06:48:05.358Z,17.66
2017-09-06T06:49:14.350Z,17.7
2017-09-06T06:50:23.199Z,17.74
2017-09-06T06:51:32.044Z,17.75
2017-09-06T06:52:40.892Z,17.75
2017-09-06T06:53:49.741Z,17.7
2017-09-06T06:54:58.737Z,17.68
2017-09-06T06:56:07.920Z,17.66
2017-09-06T06:57:16.768Z,17.78
2017-09-06T06:58:25.612Z,17.66
2017-09-06T06:59:34.461Z,17.75
2017-09-06T07:00:43.308Z,17.82
2017-09-06T07:01:52.157Z,17.72
2017-09-06T07:03:01.006Z,17.77
2017-09-06T07:04:09.854Z,17.72
2017-09-06T07:05:18.700Z,17.71
2017-09-06T07:06:27.546Z,17.74
2017-09-06T07:07:36.392Z,17.77
2017-09-06T07:08:45.238Z,17.79
2017-09-06T07:09:54.086Z,17.87
2017-09-06T07:11:02.931Z,17.87
2017-09-06T07:12:11.928Z,17.9
2017-09-06T07:13:20.776Z,17.93
2017-09-06T07:14:29.624Z,17.89
2017-09-06T07:15:38.472Z,17.89
2017-09-06T07:16:47.648Z,17.9
2017-09-06T07:17:56.494Z,17.92
2017-09-06T07:19:05.342Z,18
2017-09-06T07:20:14.189Z,17.97
2017-09-06T07:21:23.040Z,18.02
2017-09-06T07:22:31.889Z,18
2017-09-06T07:23:40.735Z,18.1
2017-09-06T07:24:49.583Z,18.1
2017-09-06T07:25:58.429Z,18.07
2017-09-06T07:27:07.277Z,18.03
2017-09-06T07:28:16.125Z,18.05
2017-09-06T07:29:24.972Z,18.07
2017-09-06T07:30:33.822Z,18.1
2017-09-06T07:31:42.668Z,18.17
2017-09-06T07:32:51.848Z,18.15
2017-09-06T07:34:00.694Z,18.15
2017-09-06T07:35:09.693Z,18.17
2017-09-06T07:36:18.539Z,18.15
2017-09-06T07:37:27.425Z,18.2
2017-09-06T07:38:36.239Z,18.15
2017-09-06T07:39:45.088Z,18.23
2017-09-06T07:40:54.086Z,18.21
2017-09-06T07:42:02.933Z,18.1
2017-09-06T07:43:11.781Z,18.23
2017-09-06T07:44:20.638Z,18.17
2017-09-06T07:45:29.484Z,18.15
2017-09-06T07:46:38.489Z,18.21
2017-09-06T07:47:47.333Z,18.25
2017-09-06T07:48:56.518Z,18.3
2017-09-06T07:50:05.368Z,18.25
2017-09-06T07:51:14.211Z,18.29
2017-09-06T07:52:23.310Z,18.32
2017-09-06T07:53:32.161Z,18.44
2017-09-06T07:54:41.013Z,18.47
2017-09-06T07:55:49.860Z,18.5
2017-09-06T07:56:58.713Z,18.55
2017-09-06T07:58:07.908Z,18.52
2017-09-06T07:59:16.756Z,18.58
2017-09-06T08:00:25.607Z,18.6
2017-09-06T08:01:34.453Z,18.62
2017-09-06T08:02:43.302Z,18.69
2017-09-06T08:03:52.201Z,18.78
2017-09-06T08:05:01.055Z,18.75
2017-09-06T08:06:09.904Z,18.75
2017-09-06T08:07:18.754Z,18.76
2017-09-06T08:08:27.602Z,18.82
2017-09-06T08:09:36.600Z,18.75
2017-09-06T08:10:45.445Z,18.78
2017-09-06T08:11:54.635Z,18.69
2017-09-06T08:13:03.483Z,18.65
2017-09-06T08:14:12.332Z,18.69
2017-09-06T08:15:21.176Z,18.62
2017-09-06T08:16:30.026Z,18.72
2017-09-06T08:17:38.879Z,18.65
2017-09-06T08:18:48.094Z,18.66
2017-09-06T08:19:56.933Z,18.69
2017-09-06T08:21:05.888Z,18.75
2017-09-06T08:22:14.734Z,18.73
2017-09-06T08:23:23.581Z,18.78
2017-09-06T08:24:32.437Z,18.82
2017-09-06T08:25:41.286Z,18.8
2017-09-06T08:26:50.257Z,18.88
2017-09-06T08:27:59.113Z,18.87
2017-09-06T08:29:07.964Z,18.82
2017-09-06T08:30:16.811Z,18.85
2017-09-06T08:31:25.660Z,18.88
2017-09-06T08:32:34.660Z,18.82
2017-09-06T08:33:43.533Z,18.85
2017-09-06T08:34:52.361Z,18.91
2017-09-06T08:36:01.209Z,18.94
2017-09-06T08:37:10.057Z,18.87
2017-09-06T08:38:19.054Z,18.92
2017-09-06T08:39:27.902Z,19.04
2017-09-06T08:40:36.750Z,18.88
2017-09-06T08:41:45.602Z,19.02
2017-09-06T08:42:54.780Z,18.95
2017-09-06T08:44:03.782Z,18.9
2017-09-06T08:45:12.626Z,18.94
2017-09-06T08:46:21.474Z,18.81
2017-09-06T08:47:30.322Z,18.81
2017-09-06T08:48:39.170Z,18.73
2017-09-06T08:49:48.116Z,18.76
2017-09-06T08:50:56.963Z,18.65
2017-09-06T08:52:05.810Z,18.66
2017-09-06T08:53:15.031Z,18.66
2017-09-06T08:54:23.855Z,18.65
2017-09-06T08:55:32.748Z,18.65
2017-09-06T08:56:41.593Z,18.73
2017-09-06T08:57:50.444Z,18.76
2017-09-06T08:58:59.623Z,18.75
2017-09-06T09:00:08.470Z,18.75
2017-09-06T09:01:17.367Z,18.81
2017-09-06T09:02:26.215Z,18.98
2017-09-06T09:03:35.069Z,18.94
2017-09-06T09:04:43.916Z,18.95
2017-09-06T09:05:52.763Z,19.04
2017-09-06T09:07:01.661Z,19.08
2017-09-06T09:08:10.509Z,19.06
2017-09-06T09:09:19.356Z,19.23
2017-09-06T09:10:28.204Z,19.28
2017-09-06T09:11:37.060Z,19.4
2017-09-06T09:12:46.211Z,19.41
2017-09-06T09:13:55.057Z,19.59
2017-09-06T09:15:03.907Z,19.55
2017-09-06T09:16:12.758Z,19.58
2017-09-06T09:17:21.608Z,19.66
2017-09-06T09:18:30.658Z,19.69
2017-09-06T09:19:39.505Z,19.61
2017-09-06T09:20:48.357Z,19.66
2017-09-06T09:21:57.203Z,19.58
2017-09-06T09:23:06.052Z,19.62
2017-09-06T09:24:15.054Z,19.58
2017-09-06T09:25:23.903Z,19.59
2017-09-06T09:26:32.753Z,19.61
2017-09-06T09:27:41.603Z,19.63
2017-09-06T09:28:50.455Z,19.61
2017-09-06T09:29:59.353Z,19.59
2017-09-06T09:31:08.205Z,19.62
2017-09-06T09:32:17.057Z,19.63
2017-09-06T09:33:25.907Z,19.62
2017-09-06T09:34:34.756Z,19.63
2017-09-06T09:35:43.703Z,19.54
2017-09-06T09:36:52.552Z,19.43
2017-09-06T09:38:01.751Z,19.41
2017-09-06T09:39:10.599Z,19.43
2017-09-06T09:40:19.446Z,19.29
2017-09-06T09:41:28.494Z,19.25
2017-09-06T09:42:37.341Z,19.1
2017-09-06T09:43:46.192Z,19.08
2017-09-06T09:44:55.372Z,18.95
2017-09-06T09:46:04.221Z,18.84
2017-09-06T09:47:13.217Z,18.82
2017-09-06T09:48:22.066Z,18.76
2017-09-06T09:49:30.917Z,18.72
2017-09-06T09:50:39.767Z,18.58
2017-09-06T09:51:48.960Z,18.57
2017-09-06T09:52:57.904Z,18.51
2017-09-06T09:54:06.752Z,18.55
2017-09-06T09:55:15.600Z,18.36
2017-09-06T09:56:24.448Z,18.32
2017-09-06T09:57:33.293Z,18.32
2017-09-06T09:58:42.189Z,18.29
2017-09-06T09:59:51.044Z,18.35
2017-09-06T10:01:00.224Z,18.45
2017-09-06T10:02:09.070Z,18.41
2017-09-06T10:03:17.918Z,18.45
2017-09-06T10:04:26.816Z,18.51
2017-09-06T10:05:35.665Z,18.47
2017-09-06T10:06:44.512Z,18.52
2017-09-06T10:07:53.360Z,18.51
2017-09-06T10:09:02.206Z,18.47
2017-09-06T10:10:11.103Z,18.47
2017-09-06T10:11:19.949Z,18.39
2017-09-06T10:12:28.796Z,18.44
2017-09-06T10:13:37.645Z,18.47
2017-09-06T10:14:46.492Z,18.48
2017-09-06T10:15:55.494Z,18.37
2017-09-06T10:17:04.339Z,18.41
2017-09-06T10:18:13.184Z,18.44
2017-09-06T10:19:22.034Z,18.54
2017-09-06T10:20:30.886Z,18.5
2017-09-06T10:21:40.210Z,18.44
2017-09-06T10:22:49.059Z,18.33
2017-09-06T10:23:57.905Z,18.27
2017-09-06T10:25:06.752Z,18.26
2017-09-06T10:26:15.596Z,18.15
2017-09-06T10:27:24.495Z,18.29
2017-09-06T10:28:33.343Z,18.26
2017-09-06T10:29:42.195Z,18.25
2017-09-06T10:30:51.049Z,18.18
2017-09-06T10:31:59.898Z,18.17
2017-09-06T10:33:08.746Z,18.17
2017-09-06T10:34:17.593Z,18.25
2017-09-06T10:35:26.438Z,18.2
2017-09-06T10:36:35.284Z,18.17
2017-09-06T10:37:44.133Z,18.23
2017-09-06T10:38:53.031Z,18.18
2017-09-06T10:40:01.880Z,18.15
2017-09-06T10:41:10.726Z,18.1
2017-09-06T10:42:19.573Z,18.2
2017-09-06T10:43:28.419Z,18.2
2017-09-06T10:44:37.415Z,18.3
2017-09-06T10:45:46.262Z,18.29
2017-09-06T10:46:55.109Z,18.32
2017-09-06T10:48:03.955Z,18.32
2017-09-06T10:49:12.802Z,18.3
2017-09-06T10:50:22.080Z,18.32
2017-09-06T10:51:30.931Z,18.29
2017-09-06T10:52:39.777Z,18.29
2017-09-06T10:53:48.629Z,18.3
2017-09-06T10:54:57.476Z,18.29
2017-09-06T10:56:06.627Z,18.39
2017-09-06T10:57:15.474Z,18.51
2017-09-06T10:58:24.322Z,18.42
2017-09-06T10:59:33.505Z,18.39
2017-09-06T11:00:42.351Z,18.35
2017-09-06T11:01:51.347Z,18.15
2017-09-06T11:03:00.196Z,18.26
2017-09-06T11:04:09.374Z,18.15
2017-09-06T11:05:18.221Z,18.23
2017-09-06T11:06:27.095Z,18.1
2017-09-06T11:07:36.245Z,18.05
2017-09-06T11:08:45.107Z,18.11
2017-09-06T11:09:53.958Z,18.25
2017-09-06T11:11:02.805Z,18.14
2017-09-06T11:12:11.689Z,18.12
2017-09-06T11:13:20.855Z,18.3
2017-09-06T11:14:29.705Z,18.23
2017-09-06T11:15:38.553Z,18.29
2017-09-06T11:16:47.478Z,18.33
2017-09-06T11:17:56.324Z,18.26
2017-09-06T11:19:05.372Z,18.25
2017-09-06T11:20:14.215Z,18.32
2017-09-06T11:21:23.063Z,18.18
2017-09-06T11:22:31.912Z,18.23
2017-09-06T11:23:40.757Z,18.23
2017-09-06T11:24:49.654Z,18.29
2017-09-06T11:25:58.588Z,18.21
2017-09-06T11:27:07.439Z,18.21
2017-09-06T11:28:16.289Z,18.12
2017-09-06T11:29:25.141Z,18.18
2017-09-06T11:30:34.161Z,18.11
2017-09-06T11:31:43.395Z,18.18
2017-09-06T11:32:52.218Z,18.07
2017-09-06T11:34:01.066Z,18.02
2017-09-06T11:35:09.918Z,17.89
2017-09-06T11:36:18.864Z,17.77
2017-09-06T11:37:27.731Z,17.63
2017-09-06T11:38:36.612Z,17.55
2017-09-06T11:39:45.470Z,17.33
2017-09-06T11:40:54.449Z,17.23
2017-09-06T11:42:03.397Z,17.3
2017-09-06T11:43:12.277Z,17.25
2017-09-06T11:44:21.125Z,17.14
2017-09-06T11:45:29.978Z,17.11
2017-09-06T11:46:38.829Z,17.08
2017-09-06T11:47:47.830Z,17.07
2017-09-06T11:48:57.266Z,17.07
2017-09-06T11:50:06.144Z,16.94
2017-09-06T11:51:14.994Z,16.94
2017-09-06T11:52:24.510Z,16.79
2017-09-06T11:53:33.432Z,16.61
2017-09-06T11:54:42.278Z,16.57
2017-09-06T11:55:51.125Z,16.71
2017-09-06T11:56:59.975Z,16.83
2017-09-06T11:58:08.823Z,16.66
2017-09-06T11:59:47.480Z,16.12
2017-09-06T12:00:56.399Z,16.05
2017-09-06T12:02:05.322Z,16
2017-09-06T12:03:14.415Z,16.17
2017-09-06T12:04:23.641Z,16.12
2017-09-06T12:05:33.348Z,16.24
2017-09-06T12:06:42.491Z,15.96
2017-09-06T12:07:51.433Z,15.92
2017-09-06T12:09:00.385Z,15.84
2017-09-06T12:10:10.053Z,15.87
2017-09-06T12:11:20.641Z,15.83
2017-09-06T12:12:30.741Z,15.72
2017-09-06T12:13:39.694Z,15.72
2017-09-06T12:14:48.699Z,15.68
2017-09-06T12:15:57.706Z,15.68
2017-09-06T12:17:07.001Z,15.56
2017-09-06T12:18:16.289Z,15.69
2017-09-06T12:19:25.532Z,15.65
2017-09-06T12:20:35.382Z,15.65
2017-09-06T12:21:45.357Z,15.83
2017-09-06T12:22:54.593Z,15.86
2017-09-06T12:24:03.575Z,15.84
2017-09-06T12:25:13.002Z,15.72
2017-09-06T12:26:22.434Z,15.65
2017-09-06T12:27:31.561Z,15.69
2017-09-06T12:28:40.749Z,15.82
2017-09-06T12:29:50.165Z,15.83
2017-09-06T12:30:59.145Z,15.9
2017-09-06T12:32:08.286Z,15.97
2017-09-06T12:33:17.465Z,15.94
2017-09-06T12:34:26.549Z,15.97
2017-09-06T12:35:35.704Z,15.9
2017-09-06T12:36:44.786Z,16.15
2017-09-06T12:37:53.815Z,16.12
2017-09-06T12:39:02.734Z,16.15
2017-09-06T12:40:13.075Z,16.09
2017-09-06T12:41:22.352Z,16.09
2017-09-06T12:42:31.201Z,16.31
2017-09-06T12:43:40.050Z,16.42
2017-09-06T12:44:48.908Z,16.46
2017-09-06T12:45:57.761Z,16.49
2017-09-06T12:47:06.764Z,16.57
2017-09-06T12:48:15.621Z,16.73
2017-09-06T12:49:24.476Z,16.79
2017-09-06T12:50:33.322Z,16.79
2017-09-06T12:51:42.172Z,16.91
2017-09-06T12:52:51.073Z,16.89
2017-09-06T12:53:59.924Z,16.91
2017-09-06T12:55:09.126Z,16.98
2017-09-06T12:56:17.978Z,17.04
2017-09-06T12:57:26.842Z,17.19
2017-09-06T12:58:36.050Z,17.06
2017-09-06T12:59:44.907Z,17.12
2017-09-06T13:00:53.766Z,17.07
2017-09-06T13:02:02.618Z,17.15
2017-09-06T13:03:11.477Z,17.19
2017-09-06T13:04:20.386Z,17.19
2017-09-06T13:05:29.270Z,17.26
2017-09-06T13:06:38.146Z,17.34
2017-09-06T13:07:46.998Z,17.41
2017-09-06T13:08:55.849Z,17.49
2017-09-06T13:10:05.001Z,17.49
2017-09-06T13:11:13.861Z,17.49
2017-09-06T13:12:22.715Z,17.51
2017-09-06T13:13:31.949Z,17.48
2017-09-06T13:14:41.158Z,17.54
2017-09-06T13:15:50.366Z,17.7
2017-09-06T13:16:59.281Z,17.7
2017-09-06T13:18:08.198Z,17.74
2017-09-06T13:19:17.146Z,17.77
2017-09-06T13:20:26.088Z,17.79
2017-09-06T13:21:35.317Z,17.77
2017-09-06T13:22:44.240Z,17.78
2017-09-06T13:23:53.132Z,17.79
2017-09-06T13:25:02.032Z,17.78
2017-09-06T13:26:10.922Z,17.72
2017-09-06T13:27:19.806Z,17.79
2017-09-06T13:28:28.742Z,17.64
2017-09-06T13:29:37.640Z,17.7
2017-09-06T13:30:46.551Z,17.75
2017-09-06T13:31:55.416Z,17.78
2017-09-06T13:33:04.282Z,17.86
2017-09-06T13:34:13.159Z,17.87
2017-09-06T13:35:22.034Z,17.86
2017-09-06T13:36:30.916Z,17.87
2017-09-06T13:37:39.797Z,17.96
2017-09-06T13:38:49.005Z,17.84
2017-09-06T13:39:57.914Z,17.86
2017-09-06T13:41:06.795Z,17.89
2017-09-06T13:42:15.662Z,17.97
2017-09-06T13:43:24.558Z,17.97
2017-09-06T13:44:33.659Z,18.08
2017-09-06T13:45:42.517Z,18.17
2017-09-06T13:46:51.400Z,18.15
2017-09-06T13:48:00.266Z,18.12
2017-09-06T13:49:09.123Z,18.08
2017-09-06T13:50:18.027Z,18.12
2017-09-06T13:51:26.936Z,18.17
2017-09-06T13:52:35.809Z,18.14
2017-09-06T13:53:44.687Z,18.21
2017-09-06T13:54:53.599Z,18.21
2017-09-06T13:56:02.765Z,18.18
2017-09-06T13:57:11.642Z,18.29
2017-09-06T13:58:20.506Z,18.54
2017-09-06T13:59:29.461Z,18.54
2017-09-06T14:00:38.314Z,18.69
2017-09-06T14:01:47.320Z,18.76
2017-09-06T14:02:56.186Z,18.85
2017-09-06T14:04:05.061Z,18.82
2017-09-06T14:05:13.944Z,18.92
2017-09-06T14:06:22.851Z,18.92
2017-09-06T14:07:31.951Z,18.85
2017-09-06T14:08:40.841Z,18.85
2017-09-06T14:09:49.733Z,18.92
2017-09-06T14:10:58.613Z,18.8
2017-09-06T14:12:07.506Z,18.84
2017-09-06T14:13:16.477Z,18.8
2017-09-06T14:14:25.413Z,18.69
2017-09-06T14:15:34.311Z,18.8
2017-09-06T14:16:43.281Z,18.94
2017-09-06T14:17:52.575Z,18.92
2017-09-06T14:19:01.821Z,19.08
2017-09-06T14:20:10.733Z,19.1
2017-09-06T14:21:19.676Z,19.06
2017-09-06T14:22:28.610Z,18.92
2017-09-06T14:23:37.540Z,18.84
2017-09-06T14:24:46.588Z,18.87
2017-09-06T14:25:55.516Z,18.7
2017-09-06T14:27:04.458Z,18.55
2017-09-06T14:28:13.407Z,18.57
2017-09-06T14:29:22.653Z,18.57
2017-09-06T14:30:31.656Z,18.55
2017-09-06T14:31:40.593Z,18.57
2017-09-06T14:32:49.537Z,18.54
2017-09-06T14:33:58.464Z,18.47
2017-09-06T14:35:07.374Z,18.41
2017-09-06T14:36:16.305Z,18.45
2017-09-06T14:37:25.182Z,18.48
2017-09-06T14:38:34.063Z,18.5
2017-09-06T14:39:42.970Z,18.32
2017-09-06T14:40:51.911Z,18.33
2017-09-06T14:42:00.930Z,18.26
2017-09-06T14:43:09.814Z,18.25
2017-09-06T14:44:18.715Z,18.2
2017-09-06T14:45:27.607Z,18.2
2017-09-06T14:46:36.498Z,18.21
2017-09-06T14:47:45.419Z,18.21
2017-09-06T14:48:54.311Z,18.18
2017-09-06T14:50:03.207Z,18.1
2017-09-06T14:51:12.117Z,18.14